Publicité

XTERRA 2021: classement 22 Km

Trail / Raid

14-05-2021

Organisateur: Athletic club de Païta

Événement chronométré par inlive

Tout     M     F    
Tout     20-29 ans     30-39 ans     40-49 ans     50-59 ans     60-69 ans     70-79 ans    

Astuce: cliquez sur deux concurrents pour comparer leur temps

Position Dossard Nom Prénom Sexe Catégorie Classement Catégorie Temps
1 132 DIANOUX Alexy M 30-39 ans 1 01:52:03
2 126 LANCELEUR Ludovic M 40-49 ans 1 01:54:58
3 123 DEUDON Jeremy M 30-39 ans 2 01:57:04
4 127 THIOUNN Dimitri M 30-39 ans 3 01:57:36
5 125 LE TROCQUER Antonin M 30-39 ans 4 01:58:02
6 94 DEHAN Loic M 40-49 ans 2 02:01:10
7 153 COCHEREAU Oswald M 40-49 ans 3 02:01:11
8 148 BONNACE Gael M 40-49 ans 4 02:02:12
9 124 NOWICKI Leslie F 40-49 ans 1 02:02:35
10 159 DESCOMBAZ Charles M 30-39 ans 5 02:10:03
11 131 POULIQUEN Ronan M 40-49 ans 5 02:10:37
12 130 COLNET Frederic M 40-49 ans 6 02:12:05
13 32 BOMBANEL Alain M 50-59 ans 1 02:12:28
14 178 CORDESSE Damien M 30-39 ans 6 02:13:53
15 162 DELRIEU Julien M 30-39 ans 7 02:14:42
16 192 GUYOT Christophe M 40-49 ans 7 02:16:25
17 72 AMOUDRUZ Anthony M 20-29 ans 1 02:18:55
18 71 JOUFFREY Joris M 20-29 ans 2 02:18:56
19 29 GRENIER Lionel M 40-49 ans 8 02:19:10
20 133 LOHYER Jessy F 40-49 ans 2 02:19:25
21 184 DENIS Hugo M 20-29 ans 3 02:19:26
22 2 MARICHEZ Benoît M 30-39 ans 8 02:19:53
23 193 FRIANT Brad M 20-29 ans 4 02:21:07
24 50 RENAUX Laetitia F 30-39 ans 1 02:21:39
25 87 BAGGIO Tristan M 30-39 ans 9 02:23:14
26 146 SIERECKI Mathias M 30-39 ans 10 02:23:16
27 77 LETOCART Frederic M 40-49 ans 9 02:25:17
28 105 VARLET Romain M 30-39 ans 11 02:26:18
29 145 CHEDAILLE Pierre M 30-39 ans 12 02:27:07
30 75 HALLIE Melanie F 30-39 ans 2 02:28:21
31 179 AFFRET Etienne M 30-39 ans 13 02:28:35
32 155 BOITTIAUX Olivier M 50-59 ans 2 02:29:12
33 52 BLANCHARD Alexis M 40-49 ans 10 02:29:19
34 7 STILMANT Emilie F 30-39 ans 3 02:29:24
35 17 BAILLON IVAN M 40-49 ans 11 02:29:40
36 129 DE GAILLANDE Christophe M 50-59 ans 3 02:29:42
37 108 DEWYNTER Amaury M 30-39 ans 14 02:30:14
38 111 RUINEAU Olivier M 30-39 ans 15 02:31:15
39 58 CARRE Mickael M 30-39 ans 16 02:31:59
40 15 JACQUET GUILLAUME M 20-29 ans 5 02:32:01
41 35 FERNANDES Sebastien M 40-49 ans 12 02:33:25
42 165 LAPORTE Arnaud M 30-39 ans 17 02:33:27
43 30 COUSIN Jonathan M 30-39 ans 18 02:33:28
44 118 DI PAOLO Rossano M 60-69 ans 1 02:33:58
45 99 MALEZIEUX Stevie M 40-49 ans 13 02:34:02
46 101 HIRTZ Franck M 50-59 ans 4 02:35:10
47 141 DAUBEZE Didier M 40-49 ans 14 02:35:14
48 16 BIDAUD DAVID M 30-39 ans 19 02:35:47
49 74 COCHOU Pierre M 50-59 ans 5 02:37:16
50 81 BARBIER Sophie F 30-39 ans 4 02:37:34
51 158 SOILIHI Sylvain M 40-49 ans 15 02:38:14
52 53 COUILLAUD Christophe M 40-49 ans 16 02:39:21
53 86 TABOGA Alvin M 40-49 ans 17 02:39:31
54 109 FILIPE Jorge M 50-59 ans 6 02:39:37
55 97 LE CALVEZ Yohan M 30-39 ans 20 02:39:38
56 78 PAWIROMEDJO Yoni M 30-39 ans 21 02:39:41
57 139 KERVOELEN Ewan M 20-29 ans 6 02:39:45
58 152 COURTIN Marion F 30-39 ans 5 02:39:48
59 92 EYSSARTIER Sebastien M 30-39 ans 22 02:40:02
60 137 DROUX Julien M 40-49 ans 18 02:40:28
61 83 FELLMANN Sebastien M 40-49 ans 19 02:41:33
62 147 MARDJOEKI Rene M 50-59 ans 7 02:41:34
63 191 MAILLOT Laurent M 50-59 ans 8 02:41:34
64 85 RAIMOND Fanny F 20-29 ans 1 02:41:46
65 112 PIOT Gregory M 40-49 ans 20 02:42:08
66 90 HUSSON Lucie F 40-49 ans 3 02:42:39
67 189 WEMA Jason M 20-29 ans 7 02:42:57
68 142 STOTZ Frederic M 30-39 ans 23 02:43:39
69 4 LAJOUANIE Aymard M 30-39 ans 24 02:44:01
70 144 GILQUIN Eric M 50-59 ans 9 02:44:01
71 51 MARTIN Eric M 50-59 ans 10 02:44:14
72 198 BOUSSAROQUE Olivier M 40-49 ans 21 02:44:27
73 28 PAYET Olivier M 40-49 ans 22 02:45:14
74 57 CHAPUSOT Stephane M 50-59 ans 11 02:46:33
75 167 POIREAU Mathieu M 30-39 ans 25 02:46:39
76 143 BALTHAZARD Emilie F 40-49 ans 4 02:46:40
77 172 GIRON Sophie F 50-59 ans 1 02:47:09
78 180 LEDUC Julien M 40-49 ans 23 02:47:16
79 199 GUILPAIN Anabelle F 50-59 ans 2 02:47:17
80 103 BEAUVILLE Bastien M 20-29 ans 8 02:47:40
81 13 CARRANZA JOHN M 40-49 ans 24 02:47:56
82 80 NATIVEL Patrick M 50-59 ans 12 02:48:10
83 12 COURIER EMMANUEL M 30-39 ans 26 02:48:49
84 48 LOQUET Wilfried M 30-39 ans 27 02:49:12
85 82 FAMAGOSTA Noellie F 30-39 ans 6 02:49:13
86 177 GUYADER Louis-marie M 40-49 ans 25 02:49:18
87 185 ONDET Christian M 50-59 ans 13 02:50:05
88 161 KERAVEC Carole F 50-59 ans 3 02:51:45
89 186 LEHEUTRE Xavier M 50-59 ans 14 02:52:22
90 154 GUETTARD Robin M 50-59 ans 15 02:52:42
91 8 GOLIAS Arnaud M 50-59 ans 16 02:53:38
92 174 JOUIN Adeline F 40-49 ans 5 02:53:55
93 196 MANSOURI Djamel M 50-59 ans 17 02:54:01
94 56 ANGELINI Armelle F 40-49 ans 6 02:54:28
95 166 CONSTANT Jean-marc M 40-49 ans 26 02:54:30
96 6 VITRY Lionel M 20-29 ans 9 02:54:39
97 24 PAIN Anthony M 40-49 ans 27 02:55:08
98 104 TOKARSKI Stanislas M 50-59 ans 18 02:55:15
99 100 BENABDELLAZIZ Maxime M 30-39 ans 28 02:55:16
100 195 LE GOANVIC Pierre M 20-29 ans 10 02:55:23
101 88 NICOLI Brigitte F 60-69 ans 1 02:55:33
102 135 BIZIEN Mickael M 40-49 ans 28 02:55:40
103 182 CECCATO Amelie M 30-39 ans 29 02:55:41
104 64 BOUVRON Rozenn F 40-49 ans 7 02:56:01
105 157 CHADEYRON Christophe M 30-39 ans 30 02:56:55
106 89 CAZAUBON Bruno M 40-49 ans 29 02:58:11
107 46 CAULLET Sebastien M 40-49 ans 30 02:58:12
108 44 MICHEL Sylvain M 30-39 ans 31 02:58:43
109 43 QUENEUTTE Ange F 30-39 ans 7 02:58:54
110 187 HUMEZ Remi M 40-49 ans 31 03:00:28
111 188 MONIER Sandrine F 40-49 ans 8 03:00:29
112 197 BUY Manuel M 30-39 ans 32 03:00:30
113 93 HUMEAU-COCHOU Laurence F 50-59 ans 4 03:01:02
114 171 DUPORTAL Anne-claire F 20-29 ans 2 03:01:32
115 128 FANTINO Virginie F 40-49 ans 9 03:01:50
116 122 CAVALCA Guillaume M 40-49 ans 32 03:01:51
117 41 CLEMENCEAU Daniel M 50-59 ans 19 03:02:14
118 39 GUERIN NEE FABRE Julie F 30-39 ans 8 03:02:23
119 168 LEROUX Marion F 30-39 ans 9 03:03:21
120 47 LOUVIER Philippe M 60-69 ans 2 03:03:39
121 25 MOURET Bruno M 30-39 ans 33 03:03:42
122 140 DOLBEAU Georges-guy M 60-69 ans 3 03:05:49
123 150 ASRI Hermann M 50-59 ans 20 03:06:59
124 107 KERDOUH Ludovic M 50-59 ans 21 03:07:27
125 190 DEMBELE Frederic M 30-39 ans 34 03:08:04
126 60 MAISON Ingrid F 30-39 ans 10 03:08:10
127 163 ROBERT-TRAEGER Jean-loup M 40-49 ans 33 03:09:15
128 173 CHAILLEUX Laurent M 50-59 ans 22 03:09:19
129 117 BLANC Cyril M 40-49 ans 34 03:10:11
130 170 CHRETIEN Pierre M 30-39 ans 35 03:10:11
131 113 BAERT Vincent M 50-59 ans 23 03:10:33
132 169 GRAIL Florian M 30-39 ans 36 03:10:41
133 149 DEVILLE Valerie F 50-59 ans 5 03:10:56
134 151 ECUER Christophe M 50-59 ans 24 03:10:56
135 23 FROGIER Sandrine F 40-49 ans 10 03:11:08
136 22 GUILLEMAIND Nicolas M 30-39 ans 37 03:12:59
137 5 MARGARON Denis M 50-59 ans 25 03:14:08
138 65 LE FRANC Jean yves M 70-79 ans 1 03:15:28
139 73 MEUNIER Jean-michel M 60-69 ans 4 03:17:53
140 49 CLAVEAU Benjamin M 40-49 ans 35 03:18:34
141 181 LE BARON Gwenael M 30-39 ans 38 03:18:59
142 138 BARBOUTEAU Joris M 20-29 ans 11 03:19:02
143 42 LUCAS Morgan M 40-49 ans 36 03:19:57
144 62 MARGUERITTE Emmanuel M 40-49 ans 37 03:22:10
145 27 BROSSARD Romain M 30-39 ans 39 03:22:42
146 84 HASCOET Marie-anais F 30-39 ans 11 03:23:37
147 10 DEMAIN NICOLAS M 40-49 ans 38 03:23:59
148 18 TOURE MOHAMAD M 30-39 ans 40 03:23:59
149 156 DUQUESNOY Helene F 50-59 ans 6 03:24:54
150 67 LE FRANC Sandrine F 50-59 ans 7 03:26:06
151 98 SANDRAS Didier M 60-69 ans 5 03:28:26
152 121 MOHLI Nicolas M 40-49 ans 39 03:28:36
153 95 BEDAS Andre M 70-79 ans 2 03:29:39
154 106 GUEROT Matthieu M 40-49 ans 40 03:29:50
155 175 BALLAND Marc M 50-59 ans 26 03:30:33
156 68 SAID Aurore F 40-49 ans 11 03:31:37
157 115 ROBERT-TRAEGER Olivier M 50-59 ans 27 03:31:39
158 20 BERTHONNEAU Guillaume M 40-49 ans 41 03:33:47
159 19 BACAR MOHAMADI M 30-39 ans 41 03:35:13
160 34 SETTIPANI Luc M 50-59 ans 28 03:38:12
161 63 MICHEL Christie F 40-49 ans 12 03:40:19
162 119 BERNARD Katja F 50-59 ans 8 03:40:20
163 37 BASTOGI Marion F 40-49 ans 13 03:40:21
164 36 GOULLET-ALLARD Alban M 20-29 ans 12 03:40:22
165 11 BEAUMARD Tony M 40-49 ans 42 03:43:22
166 160 CHARBONNEL Clement M 30-39 ans 42 03:44:27
167 114 SUWARNO Witono M 50-59 ans 29 03:44:32
168 110 ACCAME Alexandra F 40-49 ans 14 03:46:56
169 194 BUONO Thierry M 50-59 ans 30 03:47:15
170 176 TARNOWKA Nathalie F 50-59 ans 9 03:50:13
171 136 ROVINOT Andy F 30-39 ans 12 03:51:07
172 21 LECAILLE Laurent M 50-59 ans 31 03:51:44
173 45 BENOIT Marilyne F 30-39 ans 13 03:53:03
174 40 PERSAN Frederic M 50-59 ans 32 03:53:16
175 59 MARCHAND Sarah F 40-49 ans 15 03:53:16
176 38 LIGNAT Patrick M 60-69 ans 6 03:56:09
177 54 LE DU Jerome M 50-59 ans 33 03:56:09
178 61 MAISON Christophe M 40-49 ans 43 03:56:24
179 134 DUFOUR Myriam F 60-69 ans 2 03:57:43
180 120 THIBOUT Pascal M 50-59 ans 34 03:57:47
181 69 LEBACLE Philippe M 50-59 ans 35 04:01:17
182 31 BENARD Lucas M 20-29 ans 13 04:02:15
183 102 HIRTZ SABATIER Florence F 50-59 ans 10 04:02:38
184 76 MEUNIER Francoise F 50-59 ans 11 04:05:06
185 14 FELICIANNE FLORENCE F 30-39 ans 14 04:08:14
186 55 VENTURA Didier M 60-69 ans 7 04:17:36
187 9 LAMY Marc M 50-59 ans 36 04:30:08
188 183 LUCIEN Andre M 30-39 ans 43 05:13:53
- 70 LENAFF Pascal M 40-49 ans - DNF
- 91 MINGUEZ Angelique F 30-39 ans - DNF
- 164 EDY Margaux F 20-29 ans - DNF
- 1 CHANCERELLE Pierre-Marie M 30-39 ans - DNS
- 3 PAUWELS HENERE M 40-49 ans - DNS
- 26 GUEGAN Thibaut M 30-39 ans - DNS
- 33 PHILIP Gaetan M 30-39 ans - DNS
- 79 JACQUET Guillaume M 20-29 ans - DNS